East Port Orchard, Washington
Current Conditions -  °F | °C
As of 2:15 AM on Wednesday 26 Nov 2014 (Local Time) from KPWT Reporting Station
Overcast Overcast  
Wind Chill: 55°   Ceiling: 400
Heat Index: 55°   Visibility: 10mi
Dew Point: 55°   Wind: 16mph
Humidity: 100%   Direction: 190°S
Pressure: 30.19"   Gusts: 24mph
Location:  47.5378°N, 122.589°W
Report Text: KPWT 261015Z AUTO 19014G21KT 10SM BKN004 OVC014 13/13 A3019 RMK AO1
Loading
Personal Weather Stations






























Interactive Weather Map New forecast layout! Learn more

10-Day Weather Forecast

Advertisements
Track Severe Weather on mobile